Cape May Court House, New Jersey
Current Conditions -  °F | °C
As of 11:35 PM on Wednesday 22 Oct 2014 (Local Time) from KWWD Reporting Station
Overcast Overcast  
Wind Chill: 54°   Ceiling: 2000
Heat Index: 54°   Visibility: 10mi
Dew Point: 46°   Wind: 14mph
Humidity: 77%   Direction: 330°NNW
Pressure: 29.76"   Gusts: 24mph
Location:  39.08°N, 74.82°W
Report Text: KWWD 230335Z AUTO 33012G21KT 10SM SCT012 OVC020 12/08 A2976 RMK AO1
Loading
Personal Weather Stations






























Interactive Weather Map
Tropical Storm Tracking
New forecast layout! Learn more

10-Day Weather Forecast

Advertisements
Track Severe Weather on mobile